Quincy, IL (62301)

5:21 AM CST en Febrero 25, 2017 (GMT -0600)
S 28th Street | | Change Station

Alt 610 ft 39.91 °N, 91.37 °W | Updated 20 seconds ago

Muy nublado
Muy nublado
24.1 ° F
Sensación térmica 15 ° F
N
8.1
Viento Variable Viento desde OSO
Gusts 8.7 mph

Hoy
Alta -- | Baja -- ° F
--% Posibilidad de precipitaciones
Ayer
Alta -- | Baja -- ° F
Precip. -- pul
Presión 29.96 pul
Visibilidad 10.0 Millas
Nubes Muy nublado 2700 ft
Nublado 3400 ft
Vientos helados 15 ° F
Punto de rocío 15 ° F
Humedad 68%
Precipitaciones 0.00 pul
Espesor de la nieve No disponible.
6:44 AM 5:53 PM
Creciente menguante, 2% visible
METAR KUIN 251054Z AUTO 30022G28KT 10SM BKN027 OVC034 M04/M09 A2994 RMK AO2 PK WND 31028/1048 SLP144 T10391089
Presión 29.96 pul
Visibilidad 10.0 Millas
Nubes Muy nublado 2700 ft
Nublado 3400 ft
Vientos helados 15 ° F
Punto de rocío 15 ° F
Humedad 68%
Precipitaciones 0.00 pul
Espesor de la nieve No disponible.
6:44 AM 5:53 PM
Creciente menguante, 2% visible
METAR KUIN 251054Z AUTO 30022G28KT 10SM BKN027 OVC034 M04/M09 A2994 RMK AO2 PK WND 31028/1048 SLP144 T10391089

Get Your Daily Forecast Email!

Thanks for signing up!

Be on the lookout for a verification email in your inbox.

You'll start receiving the daily forecast at 8 AM.

×

10-Day Weather Forecast

Almanac

Astronomía

Feb. 25, 2017 Salida Puesta
Hora real
Crepúsculo civil
Crepúsculo náutico
Crepúsculo astronómico
Luna
Horas de luz
Horas de luz
Tomorrow will be .
, % of the Moon is Illuminated

Extremos de hoy

Máximos del estado Bajos del estado

Community

WunderPhotos

Upload Photos

1,962,540 ¡fotos cargadas!

WunderBlog® & News

Nearby

Calidad del aire

  Calidad del aire Índice AQ Contaminante
Not available.

Grosos de nieve

Estación Profundido Altura

Actividad de terremotos

Ciudad Distance Mag. Tiempo y dato
Magnitud mínima muestra es 2,5.

Temperaturas de aguas costeras

Lugar Temperatura

Stations

Estaciones meteorológicas cercanas

Ubicación de la estación Temp. Vientos helados Punto de rocío Humedad Viento Precip. Alt Actualizado Tipo
                   

Watches & Warnings

There are currently no watches in effect.